createdAt,value
2023-10-25T00:00:05.981Z,4.00
2023-10-25T00:01:06.018Z,4.00
2023-10-25T00:02:05.974Z,4.00
2023-10-25T00:03:06.116Z,4.00
2023-10-25T00:04:06.085Z,4.00
2023-10-25T00:05:05.959Z,4.00
2023-10-25T00:06:05.957Z,4.00
2023-10-25T00:07:06.088Z,4.00
2023-10-25T00:08:05.948Z,4.00
2023-10-25T00:09:06.020Z,4.00
2023-10-25T00:10:06.097Z,4.00
2023-10-25T00:11:05.937Z,4.00
2023-10-25T00:12:05.943Z,4.00
2023-10-25T00:13:05.952Z,4.00
2023-10-25T00:14:05.918Z,4.00
2023-10-25T00:15:05.953Z,4.00
2023-10-25T00:17:05.965Z,4.00
2023-10-25T00:18:05.952Z,4.00
2023-10-25T00:19:05.961Z,4.00
2023-10-25T00:20:05.890Z,4.00
2023-10-25T00:21:05.884Z,4.00
2023-10-25T00:22:05.912Z,4.00
2023-10-25T00:23:08.126Z,4.00
2023-10-25T00:24:05.872Z,4.00
2023-10-25T00:25:05.915Z,4.00
2023-10-25T00:26:05.860Z,4.00
2023-10-25T00:27:05.857Z,4.00
2023-10-25T00:28:05.918Z,4.00
2023-10-25T00:29:05.846Z,4.00
2023-10-25T00:30:05.848Z,4.00
2023-10-25T00:31:06.060Z,4.00
2023-10-25T00:32:05.883Z,4.00
2023-10-25T00:33:05.894Z,4.00
2023-10-25T00:34:05.861Z,4.00
2023-10-25T00:35:05.830Z,4.00
2023-10-25T00:36:05.814Z,4.00
2023-10-25T00:37:05.842Z,4.00
2023-10-25T00:38:05.811Z,4.00
2023-10-25T00:39:05.808Z,4.00
2023-10-25T00:40:05.845Z,4.00
2023-10-25T00:41:05.790Z,4.00
2023-10-25T00:42:05.786Z,4.00
2023-10-25T00:43:05.848Z,4.00
2023-10-25T00:44:05.772Z,4.00
2023-10-25T00:45:05.776Z,4.00
2023-10-25T00:46:05.865Z,4.00
2023-10-25T00:47:05.804Z,4.00
2023-10-25T00:48:05.762Z,4.00
2023-10-25T00:49:05.768Z,4.00
2023-10-25T00:50:05.742Z,4.00
2023-10-25T00:51:05.742Z,4.00
2023-10-25T00:52:05.821Z,4.00
2023-10-25T00:53:05.726Z,4.00
2023-10-25T00:54:05.718Z,4.00
2023-10-25T00:55:05.771Z,4.00
2023-10-25T00:56:05.712Z,4.00
2023-10-25T00:57:05.715Z,4.00
2023-10-25T00:58:05.741Z,4.00
2023-10-25T00:59:06.201Z,4.00
2023-10-25T01:00:05.693Z,4.00
2023-10-25T01:01:05.714Z,4.00
2023-10-25T01:02:05.714Z,4.00
2023-10-25T01:03:05.734Z,4.00
2023-10-25T01:04:05.795Z,4.00
2023-10-25T01:05:05.672Z,4.00
2023-10-25T01:06:05.659Z,4.00
2023-10-25T01:07:05.712Z,4.00
2023-10-25T01:08:05.651Z,4.00
2023-10-25T01:09:05.649Z,4.00
2023-10-25T01:10:05.687Z,4.00
2023-10-25T01:11:05.636Z,4.00
2023-10-25T01:12:05.635Z,4.00
2023-10-25T01:13:05.726Z,4.00
2023-10-25T01:14:05.621Z,4.00
2023-10-25T01:15:05.736Z,4.00
2023-10-25T01:16:05.732Z,4.00
2023-10-25T01:17:05.668Z,4.00
2023-10-25T01:18:05.639Z,4.00
2023-10-25T01:19:05.632Z,4.00
2023-10-25T01:20:05.585Z,4.00
2023-10-25T01:21:05.587Z,4.00
2023-10-25T01:22:05.633Z,4.00
2023-10-25T01:23:05.587Z,4.00
2023-10-25T01:24:05.565Z,4.00
2023-10-25T01:25:05.668Z,4.00
2023-10-25T01:26:05.558Z,4.00
2023-10-25T01:27:05.549Z,4.00
2023-10-25T01:28:05.549Z,4.00
2023-10-25T01:29:05.533Z,4.00
2023-10-25T01:30:05.531Z,4.00
2023-10-25T01:31:05.552Z,4.00
2023-10-25T01:32:05.556Z,4.00
2023-10-25T01:33:05.547Z,4.00
2023-10-25T01:34:05.522Z,4.00
2023-10-25T01:35:05.503Z,4.00
2023-10-25T01:36:05.490Z,4.00
2023-10-25T01:37:05.518Z,4.00
2023-10-25T01:38:05.483Z,4.00
2023-10-25T01:39:05.484Z,4.00
2023-10-25T01:40:05.490Z,4.00
2023-10-25T01:41:05.470Z,4.00
2023-10-25T01:42:05.461Z,4.00
2023-10-25T01:43:05.462Z,4.00
2023-10-25T01:44:05.507Z,4.00
2023-10-25T01:45:05.453Z,4.00
2023-10-25T01:46:05.565Z,4.00
2023-10-25T01:47:05.475Z,4.00
2023-10-25T01:48:05.445Z,4.00
2023-10-25T01:49:05.474Z,4.00
2023-10-25T01:50:05.410Z,4.00
2023-10-25T01:51:05.408Z,4.00
2023-10-25T01:52:05.487Z,4.00
2023-10-25T01:53:05.391Z,4.00
2023-10-25T01:54:05.397Z,4.00
2023-10-25T01:55:05.717Z,4.00
2023-10-25T01:56:05.372Z,4.00
2023-10-25T01:57:05.390Z,4.00
2023-10-25T01:58:05.381Z,4.00
2023-10-25T01:59:05.362Z,4.00
2023-10-25T02:00:05.350Z,4.00
2023-10-25T02:01:05.390Z,4.00
2023-10-25T02:02:05.379Z,4.00
2023-10-25T02:03:05.399Z,4.00
2023-10-25T02:04:05.436Z,4.00
2023-10-25T02:05:05.322Z,4.00
2023-10-25T02:06:05.316Z,4.00
2023-10-25T02:07:05.352Z,4.00
2023-10-25T02:08:05.304Z,4.00
2023-10-25T02:09:05.309Z,4.00
2023-10-25T02:10:05.499Z,4.00
2023-10-25T02:11:05.280Z,4.00
2023-10-25T02:12:05.285Z,4.00
2023-10-25T02:13:05.313Z,4.00
2023-10-25T02:14:05.259Z,4.00
2023-10-25T02:15:05.257Z,4.00
2023-10-25T02:16:05.445Z,4.00
2023-10-25T02:17:05.316Z,4.00
2023-10-25T02:18:05.323Z,4.00
2023-10-25T02:19:05.249Z,4.00
2023-10-25T02:20:05.225Z,4.00
2023-10-25T02:21:05.220Z,4.00
2023-10-25T02:22:05.239Z,4.00
2023-10-25T02:23:05.226Z,4.00
2023-10-25T02:24:05.201Z,4.00
2023-10-25T02:25:05.222Z,4.00
2023-10-25T02:26:05.176Z,4.00
2023-10-25T02:27:05.377Z,4.00
2023-10-25T02:28:05.223Z,4.00
2023-10-25T02:29:05.180Z,4.00
2023-10-25T02:30:05.163Z,4.00
2023-10-25T02:31:05.252Z,4.00
2023-10-25T02:32:05.268Z,4.00
2023-10-25T02:33:05.161Z,4.00
2023-10-25T02:34:05.215Z,4.00
2023-10-25T02:35:05.129Z,4.00
2023-10-25T02:36:05.118Z,4.00
2023-10-25T02:37:05.202Z,4.00
2023-10-25T02:38:05.104Z,4.00
2023-10-25T02:39:05.113Z,4.00
2023-10-25T02:40:05.158Z,4.00
2023-10-25T02:41:05.096Z,4.00
2023-10-25T02:42:05.079Z,4.00
2023-10-25T02:43:05.125Z,4.00
2023-10-25T02:44:05.074Z,4.00
2023-10-25T02:45:05.077Z,4.00
2023-10-25T02:46:05.236Z,4.00
2023-10-25T02:47:05.047Z,4.00
2023-10-25T02:48:05.186Z,4.00
2023-10-25T02:49:05.053Z,4.00
2023-10-25T02:50:05.024Z,4.00
2023-10-25T02:51:05.021Z,4.00
2023-10-25T02:52:05.095Z,4.00
2023-10-25T02:53:05.007Z,4.00
2023-10-25T02:54:04.994Z,4.00
2023-10-25T02:55:05.054Z,4.00
2023-10-25T02:56:04.987Z,4.00
2023-10-25T02:57:04.981Z,4.00
2023-10-25T02:58:05.112Z,4.00
2023-10-25T02:59:04.970Z,4.00
2023-10-25T03:00:04.959Z,4.00
2023-10-25T03:01:05.058Z,4.00
2023-10-25T03:02:04.996Z,4.00
2023-10-25T03:03:05.080Z,4.00
2023-10-25T03:04:05.034Z,4.00
2023-10-25T03:05:04.930Z,4.00
2023-10-25T03:06:04.917Z,4.00
2023-10-25T03:07:04.999Z,4.00
2023-10-25T03:08:05.017Z,4.00
2023-10-25T03:09:04.898Z,4.00
2023-10-25T03:10:04.961Z,4.00
2023-10-25T03:11:04.890Z,4.00
2023-10-25T03:12:04.883Z,4.00
2023-10-25T03:13:04.942Z,4.00
2023-10-25T03:14:04.893Z,4.00
2023-10-25T03:15:04.866Z,4.00
2023-10-25T03:16:04.969Z,4.00
2023-10-25T03:17:04.858Z,4.00
2023-10-25T03:18:04.890Z,4.00
2023-10-25T03:19:04.889Z,4.00
2023-10-25T03:20:04.840Z,4.00
2023-10-25T03:21:04.872Z,4.00
2023-10-25T03:22:04.862Z,4.00
2023-10-25T03:23:05.525Z,4.00
2023-10-25T03:24:04.814Z,4.00
2023-10-25T03:25:04.855Z,4.00
2023-10-25T03:26:04.812Z,4.00
2023-10-25T03:27:04.794Z,4.00
2023-10-25T03:28:04.831Z,4.00
2023-10-25T03:29:04.886Z,4.00
2023-10-25T03:30:04.791Z,4.00
2023-10-25T03:31:04.840Z,4.00
2023-10-25T03:32:04.829Z,4.00
2023-10-25T03:33:04.798Z,4.00
2023-10-25T03:34:04.779Z,4.00
2023-10-25T03:35:04.760Z,4.00
2023-10-25T03:36:04.743Z,4.00
2023-10-25T03:37:04.781Z,4.00
2023-10-25T03:38:04.737Z,4.00
2023-10-25T03:39:04.871Z,4.00
2023-10-25T03:40:04.733Z,4.00
2023-10-25T03:41:04.712Z,4.00
2023-10-25T03:42:04.716Z,4.00
2023-10-25T03:43:04.721Z,4.00
2023-10-25T03:44:04.695Z,4.00
2023-10-25T03:46:04.845Z,4.00
2023-10-25T03:47:04.753Z,4.00
2023-10-25T03:48:04.701Z,4.00
2023-10-25T03:49:04.725Z,4.00
2023-10-25T03:50:04.671Z,4.00
2023-10-25T03:51:04.653Z,4.00
2023-10-25T03:52:04.792Z,4.00
2023-10-25T03:53:04.641Z,4.00
2023-10-25T03:54:04.635Z,4.00
2023-10-25T03:55:04.657Z,4.00
2023-10-25T03:56:04.626Z,4.00
2023-10-25T03:57:04.616Z,4.00
2023-10-25T03:58:04.833Z,4.00
2023-10-25T03:59:04.606Z,4.00
2023-10-25T04:00:04.583Z,4.00
2023-10-25T04:01:06.229Z,4.00
2023-10-25T04:02:04.716Z,4.00
2023-10-25T04:03:05.081Z,4.00
2023-10-25T04:04:04.602Z,4.00
2023-10-25T04:05:04.556Z,4.00
2023-10-25T04:06:04.545Z,4.00
2023-10-25T04:07:04.609Z,4.00
2023-10-25T04:08:04.533Z,4.00
2023-10-25T04:09:04.597Z,4.00
2023-10-25T04:10:04.541Z,4.00
2023-10-25T04:11:04.530Z,4.00
2023-10-25T04:12:04.507Z,4.00
2023-10-25T04:13:04.553Z,4.00
2023-10-25T04:14:04.497Z,4.00
2023-10-25T04:15:04.502Z,4.00
2023-10-25T04:16:04.508Z,4.00
2023-10-25T04:17:04.525Z,4.00
2023-10-25T04:18:04.574Z,4.00
2023-10-25T04:19:04.506Z,4.00
2023-10-25T04:20:04.464Z,4.00
2023-10-25T04:21:04.460Z,4.00
2023-10-25T04:22:04.470Z,4.00
2023-10-25T04:23:04.453Z,4.00
2023-10-25T04:24:04.435Z,4.00
2023-10-25T04:25:04.480Z,4.00
2023-10-25T04:26:04.423Z,4.00
2023-10-25T04:27:04.426Z,4.00
2023-10-25T04:28:04.425Z,4.00
2023-10-25T04:29:04.511Z,4.00
2023-10-25T04:30:06.774Z,4.00
2023-10-25T04:31:04.473Z,4.00
2023-10-25T04:32:04.476Z,4.00
2023-10-25T04:33:04.428Z,4.00
2023-10-25T04:34:04.411Z,4.00
2023-10-25T04:35:04.362Z,4.00
2023-10-25T04:36:04.348Z,4.00
2023-10-25T04:37:04.413Z,4.00
2023-10-25T04:38:04.339Z,4.00
2023-10-25T04:39:04.348Z,4.00
2023-10-25T04:40:04.357Z,4.00
2023-10-25T04:41:04.344Z,4.00
2023-10-25T04:42:04.308Z,4.00
2023-10-25T04:43:04.375Z,4.00
2023-10-25T04:44:04.297Z,4.00
2023-10-25T04:45:04.303Z,4.00
2023-10-25T04:46:04.372Z,4.00
2023-10-25T04:47:04.368Z,4.00
2023-10-25T04:48:04.378Z,4.00
2023-10-25T04:49:04.323Z,4.00
2023-10-25T04:50:04.360Z,4.00
2023-10-25T04:51:04.254Z,4.00
2023-10-25T04:52:04.338Z,4.00
2023-10-25T04:53:04.235Z,4.00
2023-10-25T04:54:04.245Z,4.00
2023-10-25T04:55:04.249Z,4.00
2023-10-25T04:56:04.219Z,4.00
2023-10-25T04:57:04.208Z,4.00
2023-10-25T04:58:04.252Z,4.00
2023-10-25T04:59:04.200Z,4.00
2023-10-25T05:00:04.197Z,4.00
2023-10-25T05:01:04.379Z,4.00
2023-10-25T05:02:04.186Z,4.00
2023-10-25T05:03:04.267Z,4.00
2023-10-25T05:04:04.313Z,4.00
2023-10-25T05:05:04.152Z,4.00
2023-10-25T05:06:04.458Z,4.00
2023-10-25T05:07:04.200Z,4.00
2023-10-25T05:08:04.141Z,4.00
2023-10-25T05:09:04.146Z,4.00
2023-10-25T05:10:04.135Z,4.00
2023-10-25T05:11:04.109Z,4.00
2023-10-25T05:12:04.114Z,4.00
2023-10-25T05:13:04.222Z,4.00
2023-10-25T05:14:04.100Z,4.00
2023-10-25T05:15:04.087Z,4.00
2023-10-25T05:16:04.114Z,4.00
2023-10-25T05:17:04.084Z,4.00
2023-10-25T05:18:04.126Z,4.00
2023-10-25T05:19:04.105Z,4.00
2023-10-25T05:20:04.061Z,4.00
2023-10-25T05:21:04.045Z,4.00
2023-10-25T05:22:04.209Z,4.00
2023-10-25T05:23:04.026Z,4.00
2023-10-25T05:24:04.033Z,4.00
2023-10-25T05:25:04.052Z,4.00
2023-10-25T05:26:04.052Z,4.00
2023-10-25T05:27:03.997Z,4.00
2023-10-25T05:28:04.027Z,4.00
2023-10-25T05:29:03.985Z,4.00
2023-10-25T05:30:03.993Z,4.00
2023-10-25T05:31:04.083Z,4.00
2023-10-25T05:32:04.080Z,4.00
2023-10-25T05:33:03.993Z,4.00
2023-10-25T05:34:04.013Z,4.00
2023-10-25T05:35:03.946Z,4.00
2023-10-25T05:36:03.953Z,4.00
2023-10-25T05:37:04.167Z,4.00
2023-10-25T05:38:03.935Z,4.00
2023-10-25T05:39:03.926Z,4.00
2023-10-25T05:40:03.995Z,4.00
2023-10-25T05:41:03.906Z,4.00
2023-10-25T05:42:04.006Z,4.00
2023-10-25T05:43:03.932Z,4.00
2023-10-25T05:44:03.900Z,4.00
2023-10-25T05:45:03.879Z,4.00
2023-10-25T05:46:03.954Z,4.00
2023-10-25T05:47:03.927Z,4.00
2023-10-25T05:48:03.928Z,4.00
2023-10-25T05:49:03.888Z,4.00
2023-10-25T05:50:03.860Z,4.00
2023-10-25T05:51:03.836Z,4.00
2023-10-25T05:52:03.989Z,4.00
2023-10-25T05:53:03.824Z,4.00
2023-10-25T05:54:03.832Z,4.00
2023-10-25T05:55:03.953Z,4.00
2023-10-25T05:56:03.816Z,4.00
2023-10-25T05:57:03.799Z,4.00
2023-10-25T05:58:03.828Z,4.00
2023-10-25T05:59:03.784Z,4.00
2023-10-25T06:00:03.795Z,4.00
2023-10-25T06:01:03.822Z,4.00
2023-10-25T06:02:03.813Z,4.00
2023-10-25T06:03:06.186Z,4.00
2023-10-25T06:04:03.814Z,4.00
2023-10-25T06:05:06.842Z,4.00
2023-10-25T06:06:03.750Z,4.00
2023-10-25T06:07:03.873Z,4.00
2023-10-25T06:08:03.737Z,4.00
2023-10-25T06:09:03.720Z,4.00
2023-10-25T06:10:03.816Z,4.00
2023-10-25T06:11:03.708Z,4.00
2023-10-25T06:12:03.706Z,4.00
2023-10-25T06:13:03.706Z,4.00
2023-10-25T06:14:03.693Z,4.00
2023-10-25T06:15:03.674Z,4.00
2023-10-25T06:16:03.746Z,4.00
2023-10-25T06:17:03.701Z,4.00
2023-10-25T06:18:03.804Z,4.00
2023-10-25T06:19:03.682Z,4.00
2023-10-25T06:20:03.670Z,4.00
2023-10-25T06:21:03.642Z,4.00
2023-10-25T06:22:03.684Z,4.00
2023-10-25T06:23:03.618Z,4.00
2023-10-25T06:24:03.616Z,4.00
2023-10-25T06:25:03.627Z,4.00
2023-10-25T06:26:03.605Z,4.00
2023-10-25T06:27:03.596Z,4.00
2023-10-25T06:28:03.633Z,4.00
2023-10-25T06:29:03.682Z,4.00
2023-10-25T06:30:03.580Z,4.00
2023-10-25T06:31:03.615Z,4.00
2023-10-25T06:32:03.617Z,4.00
2023-10-25T06:33:03.563Z,4.00
2023-10-25T06:34:03.622Z,4.00
2023-10-25T06:35:03.539Z,4.00
2023-10-25T06:36:03.544Z,4.00
2023-10-25T06:37:03.557Z,4.00
2023-10-25T06:38:03.544Z,4.00
2023-10-25T06:39:03.611Z,4.00
2023-10-25T06:40:03.541Z,4.00
2023-10-25T06:41:03.490Z,4.00
2023-10-25T06:42:03.491Z,4.00
2023-10-25T06:43:03.512Z,4.00
2023-10-25T06:44:03.482Z,4.00
2023-10-25T06:45:03.469Z,4.00
2023-10-25T06:46:06.242Z,4.00
2023-10-25T06:47:03.499Z,4.00
2023-10-25T06:48:03.468Z,4.00
2023-10-25T06:49:03.508Z,4.00
2023-10-25T06:50:03.438Z,4.00
2023-10-25T06:51:03.421Z,4.00
2023-10-25T06:52:03.458Z,4.00
2023-10-25T06:53:03.408Z,4.00
2023-10-25T06:54:03.516Z,4.00
2023-10-25T06:55:03.454Z,4.00
2023-10-25T06:56:03.433Z,4.00
2023-10-25T06:57:03.379Z,4.00
2023-10-25T06:58:03.477Z,4.00
2023-10-25T06:59:03.372Z,4.00
2023-10-25T07:00:03.371Z,4.00
2023-10-25T07:01:06.926Z,4.00
2023-10-25T07:02:03.404Z,4.00
2023-10-25T07:03:03.394Z,4.00
2023-10-25T07:04:03.436Z,4.00
2023-10-25T07:05:03.461Z,4.00
2023-10-25T07:06:03.324Z,4.00
2023-10-25T07:07:03.341Z,4.00
2023-10-25T07:08:03.359Z,4.00
2023-10-25T07:09:03.293Z,4.00
2023-10-25T07:10:03.341Z,4.00
2023-10-25T07:11:03.279Z,4.00
2023-10-25T07:12:03.285Z,4.00
2023-10-25T07:13:03.300Z,4.00
2023-10-25T07:14:03.281Z,4.00
2023-10-25T07:15:03.267Z,4.00
2023-10-25T07:16:03.418Z,4.00
2023-10-25T07:17:03.300Z,4.00
2023-10-25T07:18:03.279Z,4.00
2023-10-25T07:19:03.244Z,4.00
2023-10-25T07:20:03.236Z,4.00
2023-10-25T07:21:03.208Z,4.00
2023-10-25T07:22:03.282Z,4.00
2023-10-25T07:23:03.196Z,4.00
2023-10-25T07:24:03.197Z,4.00
2023-10-25T07:25:03.274Z,4.00
2023-10-25T07:26:03.278Z,4.00
2023-10-25T07:27:03.165Z,4.00
2023-10-25T07:28:03.238Z,4.00
2023-10-25T07:29:03.168Z,4.00
2023-10-25T07:30:03.156Z,4.00
2023-10-25T07:31:03.223Z,4.00
2023-10-25T07:32:03.195Z,4.00
2023-10-25T07:33:03.182Z,4.00
2023-10-25T07:34:03.182Z,4.00
2023-10-25T07:35:03.114Z,4.00
2023-10-25T07:36:03.108Z,4.00
2023-10-25T07:37:03.212Z,4.00
2023-10-25T07:38:03.096Z,4.00
2023-10-25T07:39:03.113Z,4.00
2023-10-25T07:40:03.150Z,4.00
2023-10-25T07:41:03.209Z,4.00
2023-10-25T07:42:03.095Z,4.00
2023-10-25T07:43:03.117Z,4.00
2023-10-25T07:44:03.056Z,4.00
2023-10-25T07:45:03.042Z,4.00
2023-10-25T07:46:03.079Z,4.00
2023-10-25T07:47:03.074Z,4.00
2023-10-25T07:48:03.080Z,4.00
2023-10-25T07:49:03.057Z,4.00
2023-10-25T07:50:03.028Z,4.00
2023-10-25T07:51:02.985Z,4.00
2023-10-25T07:52:03.021Z,4.00
2023-10-25T07:53:02.973Z,4.00
2023-10-25T07:54:03.184Z,4.00
2023-10-25T07:55:08.987Z,4.00
2023-10-25T07:57:09.539Z,4.00
2023-10-25T07:58:19.824Z,4.00
2023-10-25T07:59:02.976Z,4.00
2023-10-25T08:00:02.933Z,4.00
2023-10-25T08:01:02.954Z,4.00
2023-10-25T08:02:02.922Z,4.00
2023-10-25T08:03:02.997Z,4.00
2023-10-25T08:04:03.004Z,4.00
2023-10-25T08:05:02.912Z,4.00
2023-10-25T08:06:02.935Z,4.00
2023-10-25T08:07:02.867Z,4.00
2023-10-25T08:08:02.869Z,4.00
2023-10-25T08:09:02.855Z,4.00
2023-10-25T08:10:02.861Z,4.00
2023-10-25T08:11:02.937Z,4.00
2023-10-25T08:12:02.832Z,4.00
2023-10-25T08:13:02.823Z,4.00
2023-10-25T08:14:02.824Z,4.00
2023-10-25T08:15:02.821Z,0.00
2023-10-25T08:16:02.910Z,0.00
2023-10-25T08:17:02.800Z,4.00
2023-10-25T08:18:02.927Z,4.00
2023-10-25T08:19:02.773Z,4.00
2023-10-25T08:20:02.786Z,4.00
2023-10-25T08:21:02.862Z,4.00
2023-10-25T08:22:02.767Z,4.00
2023-10-25T08:23:02.759Z,8.00
2023-10-25T08:24:02.758Z,4.00
2023-10-25T08:25:02.732Z,4.00
2023-10-25T08:26:02.731Z,4.00
2023-10-25T08:27:02.711Z,8.00
2023-10-25T08:28:02.742Z,4.00
2023-10-25T08:29:02.698Z,4.00
2023-10-25T08:30:02.790Z,4.00
2023-10-25T08:31:02.717Z,4.00
2023-10-25T08:32:02.699Z,4.00
2023-10-25T08:33:02.753Z,4.00
2023-10-25T08:34:02.667Z,8.00
2023-10-25T08:35:02.653Z,4.00
2023-10-25T08:36:02.716Z,8.00
2023-10-25T08:37:02.631Z,8.00
2023-10-25T08:38:02.638Z,8.00
2023-10-25T08:39:02.658Z,4.00
2023-10-25T08:40:02.622Z,8.00
2023-10-25T08:41:02.599Z,8.00
2023-10-25T08:42:02.607Z,4.00
2023-10-25T08:43:02.601Z,8.00
2023-10-25T08:44:02.595Z,8.00
2023-10-25T08:45:02.641Z,8.00
2023-10-25T08:46:02.623Z,8.00
2023-10-25T08:47:02.557Z,8.00
2023-10-25T08:48:02.652Z,12.00
2023-10-25T08:49:02.547Z,12.00
2023-10-25T08:50:02.540Z,12.00
2023-10-25T08:51:02.648Z,12.00
2023-10-25T08:52:02.619Z,12.00
2023-10-25T08:53:02.513Z,12.00
2023-10-25T08:54:02.537Z,16.00
2023-10-25T08:55:02.500Z,24.00
2023-10-25T08:56:02.492Z,24.00
2023-10-25T08:57:02.557Z,24.00
2023-10-25T08:58:02.480Z,24.00
2023-10-25T08:59:02.451Z,24.00
2023-10-25T09:00:02.595Z,24.00
2023-10-25T09:01:02.470Z,28.00
2023-10-25T09:02:02.878Z,28.00
2023-10-25T09:03:02.540Z,24.00
2023-10-25T09:04:02.559Z,20.00
2023-10-25T09:05:02.456Z,24.00
2023-10-25T09:06:02.585Z,24.00
2023-10-25T09:07:02.422Z,24.00
2023-10-25T09:08:02.378Z,20.00
2023-10-25T09:09:02.388Z,20.00
2023-10-25T09:10:02.358Z,24.00
2023-10-25T09:11:02.370Z,24.00
2023-10-25T09:12:02.415Z,20.00
2023-10-25T09:13:02.347Z,20.00
2023-10-25T09:14:02.337Z,20.00
2023-10-25T09:15:02.394Z,20.00
2023-10-25T09:16:02.345Z,20.00
2023-10-25T09:17:02.312Z,20.00
2023-10-25T09:18:02.345Z,16.00
2023-10-25T09:19:02.298Z,16.00
2023-10-25T09:20:02.279Z,20.00
2023-10-25T09:21:11.551Z,20.00
2023-10-25T09:22:02.267Z,20.00
2023-10-25T09:23:02.368Z,20.00
2023-10-25T09:24:02.326Z,24.00
2023-10-25T09:25:02.263Z,28.00
2023-10-25T09:26:02.246Z,32.00
2023-10-25T09:27:02.234Z,36.00
2023-10-25T09:28:02.215Z,36.00
2023-10-25T09:29:02.214Z,36.00
2023-10-25T09:30:04.205Z,36.00
2023-10-25T09:31:02.238Z,40.00
2023-10-25T09:32:02.182Z,40.00
2023-10-25T09:33:02.294Z,40.00
2023-10-25T09:34:02.170Z,36.00
2023-10-25T09:35:02.166Z,36.00
2023-10-25T09:36:02.181Z,36.00
2023-10-25T09:37:02.160Z,40.00
2023-10-25T09:38:02.134Z,40.00
2023-10-25T09:39:02.196Z,44.00
2023-10-25T09:40:02.121Z,44.00
2023-10-25T09:41:02.117Z,48.00
2023-10-25T09:42:02.199Z,52.00
2023-10-25T09:43:02.107Z,52.00
2023-10-25T09:44:02.084Z,52.00
2023-10-25T09:45:02.132Z,56.00
2023-10-25T09:46:02.100Z,48.00
2023-10-25T09:47:02.084Z,52.00
2023-10-25T09:48:02.119Z,56.00
2023-10-25T09:49:02.053Z,60.00
2023-10-25T09:50:02.062Z,64.00
2023-10-25T09:51:02.051Z,68.00
2023-10-25T09:52:02.019Z,76.00
2023-10-25T09:53:02.023Z,76.00
2023-10-25T09:54:02.038Z,84.00
2023-10-25T09:55:02.004Z,84.00
2023-10-25T09:56:01.991Z,84.00
2023-10-25T09:57:02.016Z,84.00
2023-10-25T09:58:01.968Z,88.00
2023-10-25T09:59:01.990Z,100.00
2023-10-25T10:00:02.037Z,116.00
2023-10-25T10:01:01.993Z,124.00
2023-10-25T10:02:02.035Z,132.00
2023-10-25T10:03:02.020Z,120.00
2023-10-25T10:04:01.952Z,104.00
2023-10-25T10:05:01.933Z,96.00
2023-10-25T10:06:02.507Z,100.00
2023-10-25T10:07:01.909Z,112.00
2023-10-25T10:08:01.885Z,116.00
2023-10-25T10:09:01.907Z,120.00
2023-10-25T10:10:01.882Z,136.00
2023-10-25T10:11:01.879Z,152.00
2023-10-25T10:12:01.866Z,160.00
2023-10-25T10:13:01.859Z,172.00
2023-10-25T10:14:01.839Z,176.00
2023-10-25T10:15:01.913Z,176.00
2023-10-25T10:16:01.946Z,176.00
2023-10-25T10:17:01.836Z,160.00
2023-10-25T10:18:01.944Z,176.00
2023-10-25T10:19:01.817Z,200.00
2023-10-25T10:20:01.793Z,204.00
2023-10-25T10:21:01.869Z,220.00
2023-10-25T10:22:01.774Z,276.00
2023-10-25T10:24:01.953Z,252.00
2023-10-25T10:25:01.910Z,232.00
2023-10-25T10:26:01.756Z,192.00
2023-10-25T10:27:01.798Z,164.00
2023-10-25T10:28:01.828Z,164.00
2023-10-25T10:29:03.798Z,152.00
2023-10-25T10:30:01.723Z,136.00
2023-10-25T10:31:01.781Z,128.00
2023-10-25T10:32:01.703Z,104.00
2023-10-25T10:33:01.851Z,88.00
2023-10-25T10:34:01.690Z,80.00
2023-10-25T10:35:01.720Z,80.00
2023-10-25T10:36:01.754Z,84.00
2023-10-25T10:37:01.652Z,100.00
2023-10-25T10:38:01.652Z,124.00
2023-10-25T10:39:01.672Z,124.00
2023-10-25T10:40:05.466Z,128.00
2023-10-25T10:41:01.616Z,120.00
2023-10-25T10:42:01.616Z,104.00
2023-10-25T10:43:01.610Z,108.00
2023-10-25T10:44:01.604Z,100.00
2023-10-25T10:45:01.633Z,88.00
2023-10-25T10:46:02.393Z,80.00
2023-10-25T10:47:01.572Z,80.00
2023-10-25T10:48:01.609Z,88.00
2023-10-25T10:49:01.558Z,96.00
2023-10-25T10:50:01.656Z,96.00
2023-10-25T10:51:01.583Z,80.00
2023-10-25T10:52:01.541Z,68.00
2023-10-25T10:53:01.517Z,68.00
2023-10-25T10:54:01.565Z,64.00
2023-10-25T10:55:01.754Z,60.00
2023-10-25T10:56:01.510Z,64.00
2023-10-25T10:57:01.568Z,76.00
2023-10-25T10:58:07.884Z,72.00
2023-10-25T10:59:01.465Z,72.00
2023-10-25T11:00:01.502Z,72.00
2023-10-25T11:01:01.449Z,76.00
2023-10-25T11:02:01.451Z,84.00
2023-10-25T11:03:01.491Z,80.00
2023-10-25T11:04:01.503Z,76.00
2023-10-25T11:05:01.417Z,68.00
2023-10-25T11:06:01.432Z,56.00
2023-10-25T11:07:01.404Z,52.00
2023-10-25T11:08:01.672Z,48.00
2023-10-25T11:09:01.441Z,44.00
2023-10-25T11:10:01.403Z,48.00
2023-10-25T11:11:01.363Z,52.00
2023-10-25T11:12:01.486Z,56.00
2023-10-25T11:13:01.348Z,60.00
2023-10-25T11:14:01.366Z,64.00
2023-10-25T11:15:01.365Z,68.00
2023-10-25T11:16:01.373Z,76.00
2023-10-25T11:17:01.410Z,80.00
2023-10-25T11:18:01.373Z,80.00
2023-10-25T11:19:01.296Z,80.00
2023-10-25T11:20:02.612Z,88.00
2023-10-25T11:21:01.302Z,96.00
2023-10-25T11:22:01.282Z,100.00
2023-10-25T11:23:01.259Z,104.00
2023-10-25T11:24:01.308Z,116.00
2023-10-25T11:25:01.242Z,112.00
2023-10-25T11:26:01.303Z,104.00
2023-10-25T11:27:01.294Z,96.00
2023-10-25T11:28:01.230Z,84.00
2023-10-25T11:29:01.207Z,84.00
2023-10-25T11:30:01.438Z,84.00
2023-10-25T11:31:01.191Z,92.00
2023-10-25T11:32:01.989Z,96.00
2023-10-25T11:33:01.227Z,84.00
2023-10-25T11:34:01.191Z,80.00
2023-10-25T11:35:01.187Z,80.00
2023-10-25T11:36:01.309Z,88.00
2023-10-25T11:37:01.138Z,96.00
2023-10-25T11:38:02.016Z,100.00
2023-10-25T11:39:01.192Z,100.00
2023-10-25T11:40:01.125Z,96.00
2023-10-25T11:41:01.112Z,104.00
2023-10-25T11:42:01.300Z,112.00
2023-10-25T11:43:01.085Z,124.00
2023-10-25T11:44:01.287Z,140.00
2023-10-25T11:45:01.177Z,136.00
2023-10-25T11:46:01.246Z,140.00
2023-10-25T11:47:01.056Z,144.00
2023-10-25T11:48:01.104Z,164.00
2023-10-25T11:49:01.035Z,196.00
2023-10-25T11:50:01.044Z,216.00
2023-10-25T11:51:01.119Z,228.00
2023-10-25T11:52:01.021Z,212.00
2023-10-25T11:53:01.005Z,212.00
2023-10-25T11:54:10.279Z,208.00
2023-10-25T11:55:01.030Z,212.00
2023-10-25T11:56:00.990Z,212.00
2023-10-25T11:57:01.139Z,220.00
2023-10-25T11:58:00.973Z,232.00
2023-10-25T11:59:00.951Z,232.00
2023-10-25T12:00:01.071Z,224.00
2023-10-25T12:01:00.961Z,208.00
2023-10-25T12:02:00.956Z,200.00
2023-10-25T12:03:01.033Z,196.00
2023-10-25T12:04:00.927Z,208.00
2023-10-25T12:05:00.907Z,200.00
2023-10-25T12:06:00.989Z,184.00
2023-10-25T12:07:00.882Z,164.00
2023-10-25T12:08:00.889Z,152.00
2023-10-25T12:10:00.861Z,144.00
2023-10-25T12:11:00.847Z,144.00
2023-10-25T12:12:00.956Z,152.00
2023-10-25T12:13:00.830Z,156.00
2023-10-25T12:14:00.833Z,172.00
2023-10-25T12:15:00.832Z,196.00
2023-10-25T12:16:01.133Z,212.00
2023-10-25T12:17:00.796Z,216.00
2023-10-25T12:18:01.113Z,224.00
2023-10-25T12:19:00.785Z,228.00
2023-10-25T12:20:10.732Z,244.00
2023-10-25T12:21:00.855Z,244.00
2023-10-25T12:22:00.868Z,236.00
2023-10-25T12:23:00.745Z,224.00
2023-10-25T12:24:00.772Z,236.00
2023-10-25T12:25:00.737Z,240.00
2023-10-25T12:26:00.725Z,224.00
2023-10-25T12:27:00.737Z,224.00
2023-10-25T12:28:00.720Z,216.00
2023-10-25T12:29:00.692Z,220.00
2023-10-25T12:30:00.723Z,232.00
2023-10-25T12:31:00.676Z,228.00
2023-10-25T12:32:00.680Z,220.00
2023-10-25T12:33:00.798Z,236.00
2023-10-25T12:34:00.665Z,244.00
2023-10-25T12:35:00.668Z,252.00
2023-10-25T12:36:00.780Z,252.00
2023-10-25T12:37:00.639Z,276.00
2023-10-25T12:38:00.728Z,288.00
2023-10-25T12:39:00.902Z,284.00
2023-10-25T12:40:00.623Z,292.00
2023-10-25T12:41:00.597Z,308.00
2023-10-25T12:42:00.617Z,312.00
2023-10-25T12:43:00.590Z,316.00
2023-10-25T12:44:00.779Z,304.00
2023-10-25T12:45:00.584Z,296.00
2023-10-25T12:46:00.581Z,300.00
2023-10-25T12:47:00.547Z,320.00
2023-10-25T12:48:00.608Z,324.00
2023-10-25T12:49:00.526Z,300.00
2023-10-25T12:50:00.645Z,272.00
2023-10-25T12:51:00.534Z,260.00
2023-10-25T12:52:00.515Z,256.00
2023-10-25T12:53:00.503Z,244.00
2023-10-25T12:54:00.555Z,228.00
2023-10-25T12:55:00.478Z,212.00
2023-10-25T12:56:00.584Z,204.00
2023-10-25T12:57:00.508Z,208.00
2023-10-25T12:58:00.484Z,216.00
2023-10-25T12:59:00.444Z,236.00
2023-10-25T13:00:00.497Z,256.00
2023-10-25T13:01:00.461Z,264.00
2023-10-25T13:02:00.431Z,268.00
2023-10-25T13:03:00.558Z,280.00
2023-10-25T13:04:00.519Z,284.00
2023-10-25T13:05:00.412Z,288.00
2023-10-25T13:06:00.458Z,276.00
2023-10-25T13:07:00.374Z,268.00
2023-10-25T13:08:00.383Z,264.00
2023-10-25T13:09:00.452Z,268.00
2023-10-25T13:10:00.392Z,280.00